createdAt,value
2017-11-08T00:00:00.046Z,90.80
2017-11-08T00:02:28.212Z,90.90
2017-11-08T00:04:56.388Z,91.10
2017-11-08T00:07:24.535Z,91.30
2017-11-08T00:09:52.700Z,91.40
2017-11-08T00:12:21.214Z,91.50
2017-11-08T00:14:49.389Z,91.70
2017-11-08T00:17:17.532Z,91.90
2017-11-08T00:19:45.693Z,92.00
2017-11-08T00:22:14.630Z,92.00
2017-11-08T00:24:42.820Z,92.00
2017-11-08T00:27:10.972Z,92.10
2017-11-08T00:29:39.732Z,92.00
2017-11-08T00:32:07.878Z,92.00
2017-11-08T00:34:37.326Z,92.00
2017-11-08T00:37:05.479Z,92.00
2017-11-08T00:39:33.702Z,92.00
2017-11-08T00:42:01.854Z,92.00
2017-11-08T00:44:30.042Z,91.90
2017-11-08T00:46:58.195Z,92.00
2017-11-08T00:49:26.374Z,91.90
2017-11-08T00:51:55.164Z,91.80
2017-11-08T00:54:23.319Z,91.80
2017-11-08T00:56:52.099Z,92.00
2017-11-08T00:59:20.256Z,92.00
2017-11-08T01:01:48.428Z,92.00
2017-11-08T01:04:16.582Z,92.00
2017-11-08T01:06:45.627Z,91.70
2017-11-08T01:09:13.796Z,91.70
2017-11-08T01:11:41.973Z,91.80
2017-11-08T01:14:10.143Z,91.80
2017-11-08T01:16:38.340Z,91.70
2017-11-08T01:19:06.487Z,91.60
2017-11-08T01:21:34.652Z,91.80
2017-11-08T01:24:02.802Z,91.90
2017-11-08T01:26:30.978Z,91.80
2017-11-08T01:28:59.131Z,91.80
2017-11-08T01:31:28.063Z,92.20
2017-11-08T01:33:56.218Z,92.20
2017-11-08T01:36:24.411Z,92.30
2017-11-08T01:38:52.595Z,92.50
2017-11-08T01:41:25.548Z,92.50
2017-11-08T01:43:54.593Z,92.70
2017-11-08T01:46:22.752Z,92.60
2017-11-08T01:48:50.916Z,92.80
2017-11-08T01:51:19.062Z,92.80
2017-11-08T01:53:47.244Z,92.90
2017-11-08T01:56:15.382Z,92.90
2017-11-08T01:58:44.306Z,92.90
2017-11-08T02:01:12.449Z,92.90
2017-11-08T02:03:40.617Z,92.80
2017-11-08T02:06:09.526Z,92.80
2017-11-08T03:52:57.543Z,94.00
2017-11-08T03:55:25.697Z,94.20
2017-11-08T03:57:53.878Z,94.30
2017-11-08T04:00:22.493Z,94.50
2017-11-08T04:02:50.671Z,94.60
2017-11-08T04:05:18.846Z,94.60
2017-11-08T04:07:47.017Z,94.60
2017-11-08T04:10:15.164Z,94.50
2017-11-08T04:12:43.443Z,94.30
2017-11-08T04:15:11.590Z,94.00
2017-11-08T04:17:40.647Z,93.90
2017-11-08T04:20:10.179Z,93.70
2017-11-08T04:22:38.570Z,93.70
2017-11-08T04:25:06.719Z,93.70
2017-11-08T04:27:35.662Z,93.70
2017-11-08T04:30:03.825Z,93.70
2017-11-08T04:32:31.972Z,93.60
2017-11-08T04:35:00.170Z,93.50
2017-11-08T04:37:28.332Z,93.50
2017-11-08T04:39:56.503Z,93.30
2017-11-08T04:42:24.682Z,93.20
2017-11-08T04:44:52.850Z,93.00
2017-11-08T04:47:21.009Z,92.70
2017-11-08T04:49:49.739Z,92.50
2017-11-08T04:52:17.903Z,92.50
2017-11-08T04:54:46.058Z,92.10
2017-11-08T04:57:14.198Z,92.10
2017-11-08T04:59:43.220Z,92.10
2017-11-08T05:02:11.367Z,92.10
2017-11-08T05:04:39.535Z,92.00
2017-11-08T05:07:08.452Z,91.70
2017-11-08T05:09:36.644Z,91.70
2017-11-08T05:12:05.086Z,91.60
2017-11-08T05:14:33.251Z,91.50
2017-11-08T05:17:02.181Z,91.20
2017-11-08T05:19:30.337Z,91.20
2017-11-08T05:21:58.509Z,91.10
2017-11-08T05:24:27.631Z,91.20
2017-11-08T05:26:55.798Z,91.10
2017-11-08T05:29:23.948Z,90.80
2017-11-08T05:31:52.121Z,90.70
2017-11-08T05:34:20.273Z,90.70
2017-11-08T05:36:48.757Z,90.60
2017-11-08T05:39:16.903Z,90.60
2017-11-08T05:41:45.541Z,90.60
2017-11-08T05:44:13.699Z,90.60
2017-11-08T05:46:41.989Z,90.50
2017-11-08T05:49:10.152Z,90.50
2017-11-08T05:51:38.310Z,90.60
2017-11-08T05:54:06.683Z,90.80
2017-11-08T05:56:34.842Z,90.90
2017-11-08T05:59:03.815Z,90.90
2017-11-08T06:01:31.964Z,90.90
2017-11-08T06:04:00.130Z,91.30
2017-11-08T06:06:28.274Z,91.10
2017-11-08T06:08:56.474Z,91.20
2017-11-08T06:11:24.618Z,91.30
2017-11-08T06:13:52.770Z,91.30
2017-11-08T06:16:21.687Z,91.60
2017-11-08T06:18:49.870Z,91.60
2017-11-08T06:21:18.022Z,91.70
2017-11-08T06:23:46.191Z,91.80
2017-11-08T06:26:14.343Z,91.80
2017-11-08T06:28:43.326Z,91.90
2017-11-08T06:31:12.263Z,91.60
2017-11-08T06:33:40.451Z,91.80
2017-11-08T06:36:08.610Z,91.80
2017-11-08T06:38:36.769Z,91.80
2017-11-08T06:41:04.934Z,91.80
2017-11-08T06:43:33.084Z,91.80
2017-11-08T06:46:03.060Z,91.80
2017-11-08T06:48:31.211Z,91.80
2017-11-08T06:51:00.072Z,91.80
2017-11-08T06:53:29.018Z,91.80
2017-11-08T06:56:00.015Z,91.80
2017-11-08T06:58:28.192Z,91.80
2017-11-08T07:00:56.418Z,91.70
2017-11-08T07:03:24.686Z,91.60
2017-11-08T07:05:52.874Z,91.30
2017-11-08T07:08:21.019Z,91.20
2017-11-08T07:10:49.194Z,91.40
2017-11-08T07:13:18.186Z,91.20
2017-11-08T07:15:47.266Z,91.10
2017-11-08T07:18:15.434Z,91.00
2017-11-08T07:20:43.616Z,91.00
2017-11-08T07:23:11.767Z,91.10
2017-11-08T07:25:39.928Z,91.10
2017-11-08T07:28:08.098Z,91.10
2017-11-08T07:30:36.263Z,91.10
2017-11-08T07:33:05.211Z,90.90
2017-11-08T07:35:33.374Z,90.90
2017-11-08T07:38:01.546Z,90.80
2017-11-08T07:40:29.699Z,90.60
2017-11-08T07:42:57.857Z,90.40
2017-11-08T07:45:26.007Z,90.00
2017-11-08T07:47:54.931Z,88.70
2017-11-08T07:50:23.123Z,88.30
2017-11-08T07:52:51.301Z,88.20
2017-11-08T07:55:25.166Z,88.30
2017-11-08T07:57:54.102Z,86.90
2017-11-08T08:00:23.303Z,86.90
2017-11-08T08:02:52.236Z,85.20
2017-11-08T08:05:21.147Z,83.60
2017-11-08T08:07:49.356Z,83.60
2017-11-08T08:10:17.494Z,82.50
2017-11-08T08:12:45.631Z,82.50
2017-11-08T08:15:14.159Z,82.60
2017-11-08T08:17:42.338Z,82.10
2017-11-08T08:20:10.509Z,81.00
2017-11-08T08:22:38.754Z,80.60
2017-11-08T08:25:07.692Z,79.70
2017-11-08T08:27:36.057Z,79.70
2017-11-08T08:30:04.229Z,78.10
2017-11-08T08:32:32.410Z,78.30
2017-11-08T08:35:00.574Z,77.60
2017-11-08T08:37:28.735Z,77.70
2017-11-08T08:39:56.915Z,75.90
2017-11-08T08:42:25.064Z,73.00
2017-11-08T08:44:53.237Z,74.40
2017-11-08T08:47:22.163Z,74.40
2017-11-08T08:49:50.322Z,74.40
2017-11-08T08:52:18.559Z,72.00
2017-11-08T08:54:47.482Z,71.20
2017-11-08T08:57:15.664Z,71.20
2017-11-08T08:59:43.867Z,70.30
2017-11-08T09:02:12.973Z,69.60
2017-11-08T09:04:41.250Z,69.60
2017-11-08T09:07:09.692Z,68.40
2017-11-08T09:09:37.874Z,67.90
2017-11-08T09:12:06.773Z,67.70
2017-11-08T09:14:34.933Z,66.10
2017-11-08T09:17:03.116Z,67.40
2017-11-08T09:19:33.208Z,67.40
2017-11-08T09:22:01.383Z,65.80
2017-11-08T09:24:35.418Z,64.80
2017-11-08T09:27:04.476Z,64.50
2017-11-08T09:29:35.401Z,64.80
2017-11-08T09:32:04.326Z,62.50
2017-11-08T09:34:32.494Z,62.50
2017-11-08T09:37:00.655Z,62.10
2017-11-08T09:39:28.831Z,62.00
2017-11-08T09:41:59.709Z,60.10
2017-11-08T09:44:27.960Z,59.20
2017-11-08T09:46:58.547Z,58.50
2017-11-08T09:49:27.467Z,55.20
2017-11-08T09:51:55.661Z,55.10
2017-11-08T09:54:33.916Z,55.20
2017-11-08T09:57:08.570Z,55.00
2017-11-08T09:59:38.638Z,54.90
2017-11-08T10:02:07.161Z,54.90
2017-11-08T10:04:35.334Z,56.30
2017-11-08T10:07:03.491Z,54.80
2017-11-08T10:09:37.495Z,55.40
2017-11-08T10:12:12.171Z,55.30
2017-11-08T10:14:41.176Z,57.10
2017-11-08T10:17:11.448Z,55.30
2017-11-08T10:19:39.680Z,54.40
2017-11-08T10:22:09.900Z,52.90
2017-11-08T10:24:44.506Z,52.70
2017-11-08T10:27:12.708Z,51.60
2017-11-08T10:29:40.889Z,50.70
2017-11-08T10:32:09.824Z,49.80
2017-11-08T10:34:38.024Z,49.90
2017-11-08T10:37:06.174Z,50.50
2017-11-08T10:39:34.357Z,49.30
2017-11-08T10:42:02.460Z,48.10
2017-11-08T10:44:30.654Z,46.80
2017-11-08T10:47:01.624Z,46.30
2017-11-08T10:49:35.428Z,44.70
2017-11-08T10:52:03.582Z,43.70
2017-11-08T10:54:31.745Z,42.60
2017-11-08T10:56:59.917Z,42.20
2017-11-08T10:59:28.080Z,41.00
2017-11-08T11:01:56.987Z,41.50
2017-11-08T11:04:25.135Z,42.00
2017-11-08T11:06:53.301Z,39.70
2017-11-08T11:09:23.333Z,38.40
2017-11-08T11:11:51.511Z,37.60
2017-11-08T11:14:20.403Z,37.70
2017-11-08T11:16:48.590Z,37.10
2017-11-08T11:19:20.678Z,37.00
2017-11-08T11:21:48.964Z,37.50
2017-11-08T11:24:17.132Z,37.20
2017-11-08T11:29:39.483Z,36.90
2017-11-08T11:32:11.475Z,37.20
2017-11-08T11:34:40.402Z,35.90
2017-11-08T11:37:08.584Z,35.90
2017-11-08T11:39:36.770Z,36.10
2017-11-08T11:42:04.967Z,36.60
2017-11-08T11:44:33.134Z,37.50
2017-11-08T11:47:01.315Z,37.50
2017-11-08T11:49:34.926Z,38.80
2017-11-08T11:52:03.166Z,39.20
2017-11-08T11:54:31.372Z,40.20
2017-11-08T11:57:00.459Z,40.20
2017-11-08T11:59:28.632Z,40.50
2017-11-08T12:01:56.785Z,41.00
2017-11-08T12:04:25.056Z,41.30
2017-11-08T12:06:53.215Z,42.70
2017-11-08T12:09:21.430Z,42.80
2017-11-08T12:11:59.714Z,43.70
2017-11-08T12:14:27.895Z,43.70
2017-11-08T12:16:57.941Z,42.90
2017-11-08T12:19:26.893Z,41.90
2017-11-08T12:21:55.775Z,42.00
2017-11-08T12:24:23.950Z,41.60
2017-11-08T12:26:52.100Z,40.70
2017-11-08T12:29:20.264Z,40.30
2017-11-08T12:31:48.424Z,40.50
2017-11-08T12:34:17.376Z,40.80
2017-11-08T12:36:45.526Z,40.80
2017-11-08T12:39:13.703Z,41.00
2017-11-08T12:41:41.962Z,41.30
2017-11-08T12:44:10.133Z,42.10
2017-11-08T12:46:38.289Z,43.00
2017-11-08T12:49:07.220Z,44.30
2017-11-08T12:51:35.392Z,44.20
2017-11-08T12:54:03.567Z,43.00
2017-11-08T12:56:34.177Z,41.60
2017-11-08T12:59:02.343Z,39.80
2017-11-08T13:01:30.498Z,39.50
2017-11-08T13:03:59.501Z,38.20
2017-11-08T13:06:27.693Z,38.20
2017-11-08T13:08:55.889Z,37.70
2017-11-08T13:11:29.493Z,37.30
2017-11-08T13:13:57.647Z,36.90
2017-11-08T13:16:25.824Z,37.30
2017-11-08T13:18:54.001Z,36.90
2017-11-08T13:21:22.173Z,37.20
2017-11-08T13:23:50.332Z,37.30
2017-11-08T13:26:18.545Z,37.50
2017-11-08T13:28:46.796Z,37.50
2017-11-08T13:31:14.993Z,37.60
2017-11-08T13:33:43.158Z,37.50
2017-11-08T13:36:11.347Z,36.90
2017-11-08T13:38:39.625Z,37.40
2017-11-08T13:41:07.800Z,37.20
2017-11-08T13:43:35.955Z,37.50
2017-11-08T13:46:04.103Z,37.60
2017-11-08T13:48:32.277Z,37.40
2017-11-08T13:51:00.429Z,37.20
2017-11-08T13:53:28.605Z,37.20
2017-11-08T13:55:56.760Z,37.10
2017-11-08T13:58:25.726Z,38.10
2017-11-08T14:00:53.914Z,38.10
2017-11-08T14:03:25.622Z,39.70
2017-11-08T14:05:53.802Z,39.70
2017-11-08T14:08:21.981Z,40.00
2017-11-08T14:10:50.150Z,41.20
2017-11-08T14:13:18.317Z,41.40
2017-11-08T14:15:46.512Z,43.30
2017-11-08T14:18:14.709Z,43.20
2017-11-08T14:20:44.004Z,46.60
2017-11-08T14:23:12.958Z,46.10
2017-11-08T14:25:41.113Z,47.00
2017-11-08T14:28:09.657Z,48.00
2017-11-08T14:30:38.596Z,50.40
2017-11-08T14:33:06.796Z,50.50
2017-11-08T14:35:34.954Z,51.20
2017-11-08T14:38:03.144Z,53.30
2017-11-08T14:40:31.305Z,53.10
2017-11-08T14:42:59.466Z,54.00
2017-11-08T14:45:27.636Z,54.70
2017-11-08T14:47:55.822Z,56.10
2017-11-08T14:50:24.012Z,56.70
2017-11-08T14:55:57.176Z,58.50
2017-11-08T14:58:25.319Z,59.60
2017-11-08T15:00:54.288Z,61.30
2017-11-08T15:03:22.449Z,61.20
2017-11-08T15:05:50.636Z,61.50
2017-11-08T15:08:18.799Z,62.20
2017-11-08T15:10:46.977Z,62.50
2017-11-08T15:13:15.165Z,63.20
2017-11-08T15:15:43.364Z,63.50
2017-11-08T15:18:11.537Z,64.10
2017-11-08T15:20:39.753Z,65.50
2017-11-08T15:23:07.925Z,65.50
2017-11-08T15:25:36.111Z,65.40
2017-11-08T15:28:04.280Z,65.40
2017-11-08T15:30:32.659Z,65.40
2017-11-08T15:33:00.827Z,65.40
2017-11-08T15:35:29.004Z,65.40
2017-11-08T15:37:57.775Z,65.40
2017-11-08T15:40:28.711Z,65.40
2017-11-08T15:42:56.872Z,65.30
2017-11-08T15:45:25.051Z,65.30
2017-11-08T15:47:53.424Z,65.70
2017-11-08T15:50:21.588Z,65.20
2017-11-08T15:52:49.758Z,65.30
2017-11-08T15:55:17.919Z,65.20
2017-11-08T15:57:46.856Z,66.60
2017-11-08T16:00:15.024Z,66.50
2017-11-08T16:02:44.210Z,66.70
2017-11-08T16:05:12.363Z,66.90
2017-11-08T16:07:40.538Z,66.40
2017-11-08T16:10:08.689Z,66.50
2017-11-08T16:12:37.627Z,67.10
2017-11-08T16:15:06.049Z,67.10
2017-11-08T16:17:34.988Z,67.20
2017-11-08T16:20:17.756Z,67.20
2017-11-08T16:22:46.695Z,67.10
2017-11-08T16:25:14.855Z,67.20
2017-11-08T16:27:43.011Z,67.80
2017-11-08T16:30:11.264Z,67.90
2017-11-08T16:32:40.200Z,67.60
2017-11-08T16:35:08.373Z,67.60
2017-11-08T16:37:36.518Z,67.70
2017-11-08T16:40:05.304Z,67.60
2017-11-08T16:42:34.215Z,67.60
2017-11-08T16:45:02.400Z,67.70
2017-11-08T16:47:30.553Z,67.80
2017-11-08T16:49:58.724Z,67.60
2017-11-08T16:52:26.889Z,67.60
2017-11-08T16:54:55.055Z,68.10
2017-11-08T16:57:24.394Z,67.50
2017-11-08T16:59:52.569Z,67.50
2017-11-08T17:02:20.718Z,67.90
2017-11-08T17:04:48.909Z,67.90
2017-11-08T17:07:17.067Z,68.20
2017-11-08T17:09:45.469Z,68.20
2017-11-08T17:12:13.636Z,68.00
2017-11-08T17:14:41.787Z,67.90
2017-11-08T17:17:10.469Z,67.30
2017-11-08T17:19:38.622Z,66.80
2017-11-08T17:22:07.543Z,67.40
2017-11-08T17:24:35.691Z,67.40
2017-11-08T17:27:04.618Z,69.80
2017-11-08T17:29:32.761Z,69.80
2017-11-08T17:32:00.925Z,70.90
2017-11-08T17:34:30.484Z,71.20
2017-11-08T17:36:59.470Z,71.20
2017-11-08T17:39:27.616Z,71.50
2017-11-08T17:41:55.858Z,71.80
2017-11-08T17:44:24.805Z,71.90
2017-11-08T17:46:52.957Z,71.80
2017-11-08T17:49:21.133Z,71.90
2017-11-08T17:51:49.651Z,72.30
2017-11-08T17:54:17.827Z,72.30
2017-11-08T17:56:45.978Z,72.50
2017-11-08T17:59:14.188Z,71.80
2017-11-08T18:01:42.343Z,71.80
2017-11-08T18:04:10.522Z,71.90
2017-11-08T18:06:38.679Z,72.10
2017-11-08T18:09:06.866Z,71.40
2017-11-08T18:11:35.022Z,71.80
2017-11-08T18:14:03.205Z,70.50
2017-11-08T18:16:31.461Z,70.00
2017-11-08T18:18:59.633Z,69.30
2017-11-08T18:21:27.801Z,69.50
2017-11-08T18:23:55.989Z,71.70
2017-11-08T18:26:24.251Z,71.60
2017-11-08T18:28:52.828Z,72.50
2017-11-08T18:31:21.071Z,72.40
2017-11-08T18:33:49.212Z,71.60
2017-11-08T18:36:17.400Z,71.80
2017-11-08T18:38:46.330Z,72.30
2017-11-08T18:41:14.511Z,72.20
2017-11-08T18:43:43.320Z,72.10
2017-11-08T18:46:11.493Z,71.90
2017-11-08T18:48:39.674Z,71.80
2017-11-08T18:51:07.848Z,71.60
2017-11-08T18:53:35.999Z,70.50
2017-11-08T18:56:04.187Z,71.60
2017-11-08T18:58:32.369Z,71.30
2017-11-08T19:01:00.560Z,71.10
2017-11-08T19:03:29.477Z,72.30
2017-11-08T19:05:57.687Z,72.20
2017-11-08T19:08:25.890Z,72.00
2017-11-08T19:10:54.189Z,71.70
2017-11-08T19:13:22.375Z,71.50
2017-11-08T19:15:50.592Z,71.90
2017-11-08T19:18:18.760Z,72.30
2017-11-08T19:20:46.901Z,72.80
2017-11-08T19:23:15.196Z,72.70
2017-11-08T19:25:43.528Z,72.00
2017-11-08T19:28:12.472Z,72.50
2017-11-08T19:30:40.624Z,72.60
2017-11-08T19:33:08.818Z,72.60
2017-11-08T19:35:36.973Z,73.00
2017-11-08T19:38:05.273Z,73.00
2017-11-08T19:40:33.426Z,73.00
2017-11-08T19:43:01.596Z,73.30
2017-11-08T19:45:29.761Z,73.10
2017-11-08T19:47:57.940Z,73.40
2017-11-08T19:50:26.108Z,73.60
2017-11-08T19:52:54.918Z,73.50
2017-11-08T19:55:23.187Z,73.40
2017-11-08T19:57:51.367Z,73.30
2017-11-08T20:00:19.541Z,74.20
2017-11-08T20:02:47.695Z,73.40
2017-11-08T20:05:15.868Z,72.90
2017-11-08T20:07:44.065Z,72.30
2017-11-08T20:10:12.248Z,72.30
2017-11-08T20:12:40.498Z,72.10
2017-11-08T20:15:08.677Z,72.40
2017-11-08T20:17:36.824Z,72.40
2017-11-08T20:20:05.019Z,72.10
2017-11-08T20:22:33.180Z,71.60
2017-11-08T20:25:01.384Z,71.70
2017-11-08T20:27:29.547Z,71.80
2017-11-08T20:29:57.709Z,71.80
2017-11-08T20:32:25.991Z,72.60
2017-11-08T20:34:54.141Z,72.50
2017-11-08T20:37:22.358Z,72.90
2017-11-08T20:39:51.279Z,73.00
2017-11-08T20:42:19.441Z,73.80
2017-11-08T20:44:47.664Z,73.70
2017-11-08T20:47:15.906Z,73.50
2017-11-08T20:49:44.086Z,73.30
2017-11-08T20:52:12.247Z,73.30
2017-11-08T20:54:40.404Z,73.00
2017-11-08T20:57:09.339Z,73.80
2017-11-08T20:59:37.710Z,72.50
2017-11-08T21:02:05.891Z,72.60
2017-11-08T21:04:34.036Z,73.10
2017-11-08T21:07:02.205Z,73.50
2017-11-08T21:09:30.367Z,73.60
2017-11-08T21:11:58.545Z,72.90
2017-11-08T21:14:27.607Z,73.30
2017-11-08T21:16:55.766Z,73.40
2017-11-08T21:19:23.928Z,73.60
2017-11-08T21:21:52.293Z,73.40
2017-11-08T21:24:20.455Z,73.60
2017-11-08T21:26:48.646Z,73.80
2017-11-08T21:29:16.803Z,73.70
2017-11-08T21:31:44.958Z,73.80
2017-11-08T21:34:13.316Z,74.40
2017-11-08T21:36:42.225Z,75.10
2017-11-08T21:39:11.000Z,75.50
2017-11-08T21:41:40.058Z,74.40
2017-11-08T21:44:08.223Z,74.30
2017-11-08T21:46:36.359Z,74.40
2017-11-08T21:49:04.534Z,73.80
2017-11-08T21:51:32.729Z,73.40
2017-11-08T21:54:00.928Z,73.80
2017-11-08T21:56:30.016Z,74.00
2017-11-08T21:58:58.165Z,75.20
2017-11-08T22:01:26.457Z,75.30
2017-11-08T22:03:54.606Z,75.10
2017-11-08T22:06:22.772Z,75.10
2017-11-08T22:08:51.508Z,75.30
2017-11-08T22:11:19.888Z,75.40
2017-11-08T22:13:48.041Z,75.00
2017-11-08T22:16:16.237Z,74.50
2017-11-08T22:18:44.392Z,74.50
2017-11-08T22:21:12.567Z,75.70
2017-11-08T22:23:40.733Z,74.50
2017-11-08T22:26:08.908Z,73.90
2017-11-08T22:28:37.070Z,73.70
2017-11-08T22:31:05.248Z,73.60
2017-11-08T22:33:33.403Z,73.40
2017-11-08T22:36:01.575Z,73.40
2017-11-08T22:38:29.730Z,72.50
2017-11-08T22:40:57.929Z,73.60
2017-11-08T22:43:26.132Z,73.90
2017-11-08T22:45:54.289Z,73.40
2017-11-08T22:48:22.460Z,73.90
2017-11-08T22:50:50.619Z,73.80
2017-11-08T22:53:18.793Z,74.40
2017-11-08T22:55:46.975Z,74.70
2017-11-08T22:58:15.149Z,75.20
2017-11-08T23:00:43.315Z,75.90
2017-11-08T23:03:11.500Z,75.60
2017-11-08T23:05:39.661Z,75.60
2017-11-08T23:08:07.836Z,75.70
2017-11-08T23:10:36.019Z,75.70
2017-11-08T23:13:04.272Z,75.60
2017-11-08T23:15:33.516Z,76.70
2017-11-08T23:18:01.720Z,78.10
2017-11-08T23:20:29.872Z,78.00
2017-11-08T23:22:59.121Z,77.50
2017-11-08T23:25:27.280Z,77.50
2017-11-08T23:27:55.818Z,76.90
2017-11-08T23:30:24.748Z,77.10
2017-11-08T23:32:53.217Z,77.00
2017-11-08T23:35:21.386Z,77.00
2017-11-08T23:37:50.154Z,76.90
2017-11-08T23:40:19.105Z,76.50
2017-11-08T23:42:47.267Z,76.50
2017-11-08T23:45:15.441Z,76.50
2017-11-08T23:47:43.591Z,76.10
2017-11-08T23:50:11.763Z,76.10
2017-11-08T23:52:39.924Z,75.90
2017-11-08T23:55:08.088Z,75.80
2017-11-08T23:57:37.021Z,76.40
